Time;durP1;ratioP1;P1;durP2;ratioP2;P2;SDS_P1;SDS_P2;PMS_P1;PMS_P2;Temp;Humidity;BMP_temperature;BMP_pressure;BME280_temperature;BME280_humidity;BME280_pressure;Samples;Min_cycle;Max_cycle;Signal;HPM_P1;HPM_P2
2021/04/11 00:01:53;;;;;;;48.57;22.83;;;;;;;;;;5075236;28;20206;-79
2021/04/11 00:04:19;;;;;;;82.77;30.43;;;;;;;;;;5075594;28;20171;-78
2021/04/11 00:06:44;;;;;;;100.90;35.10;;;;;;;;;;5075683;28;20168;-79
2021/04/11 00:09:10;;;;;;;106.07;37.00;;;;;;;;;;5075095;28;20190;-78
2021/04/11 00:11:35;;;;;;;113.70;36.77;;;;;;;;;;5074097;28;20269;-78
2021/04/11 00:14:00;;;;;;;104.50;36.30;;;;;;;;;;5075126;28;20668;-79
2021/04/11 00:16:26;;;;;;;100.33;35.97;;;;;;;;;;5075455;28;20681;-78
2021/04/11 00:18:51;;;;;;;119.10;40.17;;;;;;;;;;5074948;28;20652;-78
2021/04/11 00:21:17;;;;;;;116.80;41.47;;;;;;;;;;5075090;28;20237;-78
2021/04/11 00:23:42;;;;;;;102.63;36.20;;;;;;;;;;5075196;28;20214;-78
2021/04/11 00:26:08;;;;;;;76.70;30.00;;;;;;;;;;5075736;28;20262;-78
2021/04/11 00:28:33;;;;;;;96.53;35.80;;;;;;;;;;5074738;28;20263;-78
2021/04/11 00:30:59;;;;;;;87.43;30.60;;;;;;;;;;5074971;28;20610;-78
2021/04/11 00:33:27;;;;;;;78.73;30.23;;;;;;;;;;5073680;28;20182;-78
2021/04/11 00:35:54;;;;;;;68.30;27.90;;;;;;;;;;5075367;28;20206;-78
2021/04/11 00:38:19;;;;;;;71.20;27.53;;;;;;;;;;5075091;28;20182;-78
2021/04/11 00:40:45;;;;;;;71.70;27.17;;;;;;;;;;5074709;28;20203;-78
2021/04/11 00:43:11;;;;;;;48.00;22.13;;;;;;;;;;5074733;28;20172;-78
2021/04/11 00:45:43;;;;;;;55.13;24.00;;;;;;;;;;5074475;28;20229;-78
2021/04/11 00:48:09;;;;;;;48.23;23.40;;;;;;;;;;5075494;28;20175;-78
2021/04/11 00:50:35;;;;;;;46.20;21.60;;;;;;;;;;5074573;28;20179;-78
2021/04/11 00:53:00;;;;;;;31.10;18.00;;;;;;;;;;5074269;28;20175;-78
2021/04/11 00:55:26;;;;;;;32.77;16.57;;;;;;;;;;5074040;28;20236;-78
2021/04/11 00:57:52;;;;;;;32.27;19.63;;;;;;;;;;5074448;28;20178;-78
2021/04/11 01:00:18;;;;;;;30.93;17.47;;;;;;;;;;5074162;28;20712;-78
2021/04/11 01:02:44;;;;;;;26.37;15.13;;;;;;;;;;5073994;28;20693;-78
2021/04/11 01:05:11;;;;;;;22.37;13.77;;;;;;;;;;5074326;28;20521;-79
2021/04/11 01:07:38;;;;;;;22.40;14.13;;;;;;;;;;5072999;28;20175;-77
2021/04/11 01:10:04;;;;;;;21.73;13.63;;;;;;;;;;5073986;28;20224;-78
2021/04/11 01:12:29;;;;;;;21.47;13.43;;;;;;;;;;5074640;28;20171;-78
2021/04/11 01:14:55;;;;;;;20.83;14.47;;;;;;;;;;5075428;28;20219;-78
2021/04/11 01:17:20;;;;;;;21.53;13.63;;;;;;;;;;5074400;28;20171;-78
2021/04/11 01:19:49;;;;;;;23.57;13.73;;;;;;;;;;5074840;28;20179;-78
2021/04/11 01:22:33;;;;;;;22.20;14.13;;;;;;;;;;5074090;28;20626;-78
2021/04/11 01:25:00;;;;;;;21.67;14.03;;;;;;;;;;5074336;28;20498;-78
2021/04/11 01:27:30;;;;;;;18.83;14.30;;;;;;;;;;5073772;28;20179;-78
2021/04/11 01:29:56;;;;;;;21.67;13.57;;;;;;;;;;5073811;28;20589;-78
2021/04/11 01:32:22;;;;;;;24.27;14.50;;;;;;;;;;5074262;28;20203;-78
2021/04/11 01:34:48;;;;;;;23.37;14.03;;;;;;;;;;5073728;28;20198;-78
2021/04/11 01:37:15;;;;;;;24.60;15.73;;;;;;;;;;5074104;28;20202;-78
2021/04/11 01:39:41;;;;;;;52.43;29.70;;;;;;;;;;5074453;28;20561;-78
2021/04/11 01:42:07;;;;;;;36.40;20.47;;;;;;;;;;5073721;28;20209;-78
2021/04/11 01:44:34;;;;;;;31.77;20.97;;;;;;;;;;5074188;28;20254;-78
2021/04/11 01:46:59;;;;;;;24.63;16.73;;;;;;;;;;5074211;28;20174;-78
2021/04/11 01:49:25;;;;;;;30.97;18.37;;;;;;;;;;5073489;28;20566;-78
2021/04/11 01:51:52;;;;;;;28.30;17.20;;;;;;;;;;5073924;28;20163;-78
2021/04/11 01:54:20;;;;;;;25.83;16.87;;;;;;;;;;5073730;28;20679;-78
2021/04/11 01:56:47;;;;;;;26.83;17.10;;;;;;;;;;5073477;28;20334;-78
2021/04/11 01:59:15;;;;;;;41.40;27.07;;;;;;;;;;5073712;28;20163;-78
2021/04/11 02:01:40;;;;;;;29.90;22.37;;;;;;;;;;5073530;28;20203;-78
2021/04/11 02:04:06;;;;;;;29.70;19.40;;;;;;;;;;5073367;28;20664;-78
2021/04/11 02:06:36;;;;;;;26.83;18.87;;;;;;;;;;5074825;28;20166;-78
2021/04/11 02:09:06;;;;;;;25.17;18.60;;;;;;;;;;5077947;28;20187;-78
2021/04/11 02:11:32;;;;;;;20.73;13.93;;;;;;;;;;5077436;28;20171;-78
2021/04/11 02:13:58;;;;;;;24.63;15.80;;;;;;;;;;5077543;28;20622;-78
2021/04/11 02:16:26;;;;;;;17.70;12.60;;;;;;;;;;5077796;28;20175;-78
2021/04/11 02:18:57;;;;;;;16.07;11.63;;;;;;;;;;5077283;28;20622;-78
2021/04/11 02:21:22;;;;;;;17.67;12.10;;;;;;;;;;5077549;28;20244;-78
2021/04/11 02:23:48;;;;;;;18.37;12.23;;;;;;;;;;5078010;28;20167;-78
2021/04/11 02:26:13;;;;;;;19.03;11.80;;;;;;;;;;5077079;28;20177;-78
2021/04/11 02:28:40;;;;;;;14.50;11.40;;;;;;;;;;5077328;28;20175;-78
2021/04/11 02:31:18;;;;;;;18.57;11.37;;;;;;;;;;5077312;28;20222;-78
2021/04/11 02:34:02;;;;;;;18.63;13.00;;;;;;;;;;5077552;28;20181;-78
2021/04/11 02:36:34;;;;;;;15.10;11.70;;;;;;;;;;5077382;28;20171;-78
2021/04/11 02:39:00;;;;;;;18.87;12.30;;;;;;;;;;5077455;28;20487;-78
2021/04/11 02:41:26;;;;;;;16.77;10.97;;;;;;;;;;5076960;28;20286;-78
2021/04/11 02:43:52;;;;;;;15.70;10.37;;;;;;;;;;5077641;28;20182;-78
2021/04/11 02:46:18;;;;;;;15.03;10.53;;;;;;;;;;5076645;28;20167;-78
2021/04/11 02:48:44;;;;;;;15.60;11.40;;;;;;;;;;5076975;28;20171;-78
2021/04/11 02:51:10;;;;;;;16.00;11.60;;;;;;;;;;5076896;28;20183;-79
2021/04/11 02:53:36;;;;;;;19.60;12.87;;;;;;;;;;5076566;28;20252;-79
2021/04/11 02:56:02;;;;;;;18.43;14.40;;;;;;;;;;5077087;28;20178;-79
2021/04/11 02:58:28;;;;;;;20.00;13.27;;;;;;;;;;5076518;28;20648;-78
2021/04/11 03:01:09;;;;;;;18.70;13.43;;;;;;;;;;5076414;28;20194;-78
2021/04/11 03:03:34;;;;;;;19.17;13.67;;;;;;;;;;5077340;28;20162;-78
2021/04/11 03:06:01;;;;;;;20.10;12.47;;;;;;;;;;5076389;28;20622;-78
2021/04/11 03:08:30;;;;;;;22.43;13.93;;;;;;;;;;5076208;28;20207;-78
2021/04/11 03:11:15;;;;;;;22.97;14.13;;;;;;;;;;5076270;28;20540;-78
2021/04/11 03:13:41;;;;;;;21.83;12.93;;;;;;;;;;5076031;28;20233;-79
2021/04/11 03:16:06;;;;;;;17.90;11.60;;;;;;;;;;5076438;28;20190;-78
2021/04/11 03:18:33;;;;;;;18.30;12.80;;;;;;;;;;5076337;28;20175;-78
2021/04/11 03:20:59;;;;;;;16.77;12.20;;;;;;;;;;5076002;28;20565;-78
2021/04/11 03:23:24;;;;;;;19.70;12.87;;;;;;;;;;5076117;28;20168;-78
2021/04/11 03:25:53;;;;;;;18.77;12.70;;;;;;;;;;5076373;28;20178;-78
2021/04/11 03:28:22;;;;;;;16.27;11.40;;;;;;;;;;5076301;28;20198;-78
2021/04/11 03:31:03;;;;;;;19.27;12.77;;;;;;;;;;5076281;28;20567;-78
2021/04/11 03:33:30;;;;;;;18.83;12.37;;;;;;;;;;5076697;28;20171;-78
2021/04/11 03:35:55;;;;;;;17.67;11.60;;;;;;;;;;5076322;28;20179;-78
2021/04/11 03:38:22;;;;;;;17.37;12.23;;;;;;;;;;5076400;28;20163;-78
2021/04/11 03:40:50;;;;;;;19.07;12.50;;;;;;;;;;5075641;28;20538;-78
2021/04/11 03:43:18;;;;;;;16.57;11.80;;;;;;;;;;5075938;28;20656;-78
2021/04/11 03:45:44;;;;;;;18.53;12.10;;;;;;;;;;5075606;28;20189;-78
2021/04/11 03:48:13;;;;;;;18.53;12.27;;;;;;;;;;5075942;28;20167;-78
2021/04/11 03:50:43;;;;;;;20.53;12.30;;;;;;;;;;5075661;28;20178;-79
2021/04/11 03:53:11;;;;;;;16.87;11.83;;;;;;;;;;5075750;28;20613;-78
2021/04/11 03:55:39;;;;;;;17.73;11.60;;;;;;;;;;5076005;28;20178;-79
2021/04/11 03:58:07;;;;;;;17.13;11.47;;;;;;;;;;5074966;28;20175;-78
2021/04/11 04:00:34;;;;;;;20.20;12.23;;;;;;;;;;5075280;28;20210;-79
2021/04/11 04:03:04;;;;;;;15.60;11.03;;;;;;;;;;5075571;28;20225;-79
2021/04/11 04:05:30;;;;;;;14.80;10.30;;;;;;;;;;5075356;28;20203;-79
2021/04/11 04:07:57;;;;;;;15.97;10.80;;;;;;;;;;5075907;28;20171;-79
2021/04/11 04:10:28;;;;;;;17.60;10.17;;;;;;;;;;5074122;28;20548;-78
2021/04/11 04:12:59;;;;;;;15.13;10.17;;;;;;;;;;5075214;28;20167;-79
2021/04/11 04:15:30;;;;;;;13.97;10.60;;;;;;;;;;5075331;28;20171;-79
2021/04/11 04:18:16;;;;;;;15.00;10.17;;;;;;;;;;5075328;28;20167;-79
2021/04/11 04:20:50;;;;;;;12.40;10.63;;;;;;;;;;5075156;28;20552;-78
2021/04/11 04:23:51;;;;;;;16.73;10.30;;;;;;;;;;5075409;28;20667;-79
2021/04/11 04:26:35;;;;;;;13.80;10.67;;;;;;;;;;5072957;28;20179;-79
2021/04/11 04:29:03;;;;;;;15.97;10.60;;;;;;;;;;5074627;28;20646;-79
2021/04/11 04:31:28;;;;;;;13.07;10.47;;;;;;;;;;5074553;28;20167;-78
2021/04/11 04:33:57;;;;;;;14.53;10.67;;;;;;;;;;5074675;28;20194;-79
2021/04/11 04:36:22;;;;;;;14.40;10.77;;;;;;;;;;5074638;28;20175;-79
2021/04/11 04:38:51;;;;;;;18.63;11.10;;;;;;;;;;5074619;28;20178;-79
2021/04/11 04:41:36;;;;;;;15.53;11.03;;;;;;;;;;5074413;28;20658;-78
2021/04/11 04:44:07;;;;;;;15.47;11.33;;;;;;;;;;5074640;28;20572;-78
2021/04/11 04:46:32;;;;;;;15.77;11.97;;;;;;;;;;5074587;28;20183;-78
2021/04/11 04:49:05;;;;;;;16.07;11.40;;;;;;;;;;5074495;28;20246;-78
2021/04/11 04:51:51;;;;;;;17.23;12.93;;;;;;;;;;5074368;28;20155;-79
2021/04/11 04:54:23;;;;;;;20.63;13.03;;;;;;;;;;5074920;28;20155;-79
2021/04/11 04:56:54;;;;;;;18.70;14.50;;;;;;;;;;5074607;28;20300;-79
2021/04/11 04:59:23;;;;;;;19.13;14.03;;;;;;;;;;5074578;28;20189;-79
2021/04/11 05:01:55;;;;;;;14.93;13.07;;;;;;;;;;5074865;28;20202;-79
2021/04/11 05:04:25;;;;;;;15.63;13.07;;;;;;;;;;5074840;28;20167;-79
2021/04/11 05:06:54;;;;;;;12.77;10.93;;;;;;;;;;5074637;28;20178;-79
2021/04/11 05:09:22;;;;;;;15.03;11.93;;;;;;;;;;5074285;28;20195;-79
2021/04/11 05:11:55;;;;;;;14.63;11.37;;;;;;;;;;5074538;28;20261;-79
2021/04/11 05:14:24;;;;;;;12.82;11.52;;;;;;;;;;5074236;28;20235;-79
2021/04/11 05:16:54;;;;;;;14.55;12.15;;;;;;;;;;5074000;28;20167;-79
2021/04/11 05:19:24;;;;;;;14.27;12.73;;;;;;;;;;5074095;28;20171;-79
2021/04/11 05:21:51;;;;;;;14.38;12.88;;;;;;;;;;5073860;28;20621;-80
2021/04/11 05:24:20;;;;;;;12.77;11.48;;;;;;;;;;5073945;28;20206;-79
2021/04/11 05:26:47;;;;;;;11.82;10.70;;;;;;;;;;5074271;28;20187;-80
2021/04/11 05:29:12;;;;;;;14.00;12.35;;;;;;;;;;5074031;28;20167;-80
2021/04/11 05:31:38;;;;;;;15.27;12.18;;;;;;;;;;5074275;28;20189;-80
2021/04/11 05:34:05;;;;;;;12.23;11.02;;;;;;;;;;5073702;28;20529;-80
2021/04/11 05:36:33;;;;;;;11.82;10.20;;;;;;;;;;5073707;28;20261;-79
2021/04/11 05:39:13;;;;;;;11.60;10.50;;;;;;;;;;5074024;28;20175;-79
2021/04/11 05:41:43;;;;;;;10.80;9.80;;;;;;;;;;5073088;28;20186;-79
2021/04/11 05:44:15;;;;;;;11.20;10.00;;;;;;;;;;5073861;28;20649;-79
2021/04/11 05:46:43;;;;;;;11.60;10.52;;;;;;;;;;5073711;28;20163;-79
2021/04/11 05:49:20;;;;;;;12.38;11.18;;;;;;;;;;5073969;28;20171;-79
2021/04/11 05:51:53;;;;;;;10.82;9.48;;;;;;;;;;5073815;28;20174;-80
2021/04/11 05:54:25;;;;;;;10.18;9.18;;;;;;;;;;5074096;28;20175;-80
2021/04/11 05:56:53;;;;;;;10.52;9.63;;;;;;;;;;5073857;28;20163;-80
2021/04/11 05:59:23;;;;;;;10.93;9.82;;;;;;;;;;5074075;28;20167;-80
2021/04/11 06:01:54;;;;;;;13.40;12.07;;;;;;;;;;5073714;28;20226;-80
2021/04/11 06:04:23;;;;;;;11.95;10.80;;;;;;;;;;5073704;28;20304;-80
2021/04/11 06:07:08;;;;;;;10.43;9.43;;;;;;;;;;5073356;28;20242;-80
2021/04/11 06:09:37;;;;;;;12.43;10.57;;;;;;;;;;5073532;28;20187;-80
2021/04/11 06:12:16;;;;;;;12.02;9.80;;;;;;;;;;5073336;28;20266;-80
2021/04/11 06:14:54;;;;;;;10.55;9.65;;;;;;;;;;5073982;28;20695;-80
2021/04/11 06:17:20;;;;;;;9.68;8.77;;;;;;;;;;5073521;28;20181;-80
2021/04/11 06:19:46;;;;;;;12.25;10.90;;;;;;;;;;5073296;28;20179;-80
2021/04/11 06:22:19;;;;;;;9.63;8.73;;;;;;;;;;5073442;28;20199;-80
2021/04/11 06:24:57;;;;;;;11.98;10.77;;;;;;;;;;5073856;28;20195;-80
2021/04/11 06:27:23;;;;;;;12.05;10.82;;;;;;;;;;5073455;28;20194;-80
2021/04/11 06:30:07;;;;;;;10.55;8.77;;;;;;;;;;5073711;28;20258;-80
2021/04/11 06:32:50;;;;;;;10.10;8.52;;;;;;;;;;5073195;28;20167;-80
2021/04/11 06:35:19;;;;;;;11.45;10.27;;;;;;;;;;5073836;28;20152;-80
2021/04/11 06:37:45;;;;;;;10.13;7.93;;;;;;;;;;5073099;28;20172;-80
2021/04/11 06:40:24;;;;;;;10.52;9.45;;;;;;;;;;5073557;28;20193;-80
2021/04/11 06:43:13;;;;;;;8.82;8.02;;;;;;;;;;5073657;28;20155;-80
2021/04/11 06:45:49;;;;;;;9.18;8.23;;;;;;;;;;5073031;28;20269;-80
2021/04/11 06:48:15;;;;;;;9.07;7.80;;;;;;;;;;5072644;28;20513;-80
2021/04/11 06:50:58;;;;;;;8.98;7.82;;;;;;;;;;5073408;28;20289;-80
2021/04/11 06:53:43;;;;;;;8.88;8.07;;;;;;;;;;5075346;28;20695;-79
2021/04/11 06:56:09;;;;;;;8.68;7.88;;;;;;;;;;5076065;28;20194;-79
2021/04/11 06:58:49;;;;;;;8.55;7.55;;;;;;;;;;5077364;28;20507;-79
2021/04/11 07:01:37;;;;;;;7.70;6.90;;;;;;;;;;5074930;28;20211;-80
2021/04/11 07:04:21;;;;;;;10.05;7.25;;;;;;;;;;5065598;28;20172;-80
2021/04/11 07:07:05;;;;;;;7.93;6.85;;;;;;;;;;5056923;28;20210;-80
2021/04/11 07:09:47;;;;;;;8.27;7.47;;;;;;;;;;5061336;28;20240;-80
2021/04/11 07:12:31;;;;;;;8.20;7.03;;;;;;;;;;5067433;28;20170;-79
2021/04/11 07:14:59;;;;;;;10.60;8.00;;;;;;;;;;5065363;28;20350;-79
2021/04/11 07:17:43;;;;;;;9.52;7.85;;;;;;;;;;5066944;28;20183;-79
2021/04/11 07:20:26;;;;;;;8.48;7.60;;;;;;;;;;5066805;28;20229;-79
2021/04/11 07:23:23;;;;;;;9.45;7.60;;;;;;;;;;5056704;28;20235;-79
2021/04/11 07:25:51;;;;;;;9.82;8.82;;;;;;;;;;5043776;28;20660;-80
2021/04/11 07:28:17;;;;;;;11.60;9.13;;;;;;;;;;5056494;28;20226;-79
2021/04/11 07:30:48;;;;;;;9.70;8.35;;;;;;;;;;5056182;28;20226;-79
2021/04/11 07:33:13;;;;;;;12.07;8.60;;;;;;;;;;5057055;28;20238;-79
2021/04/11 07:35:50;;;;;;;11.45;8.73;;;;;;;;;;5054661;28;20587;-79
2021/04/11 07:38:22;;;;;;;9.02;7.80;;;;;;;;;;5063474;28;20539;-80
2021/04/11 07:41:06;;;;;;;10.68;8.25;;;;;;;;;;5055881;28;20214;-80
2021/04/11 07:43:34;;;;;;;9.65;7.65;;;;;;;;;;5055756;28;20225;-80
2021/04/11 07:46:18;;;;;;;8.60;7.65;;;;;;;;;;5055704;28;20179;-80
2021/04/11 07:49:02;;;;;;;10.65;8.15;;;;;;;;;;5055534;28;20198;-80
2021/04/11 07:51:29;;;;;;;10.35;7.63;;;;;;;;;;5055347;28;20491;-80
2021/04/11 07:54:00;;;;;;;12.60;8.38;;;;;;;;;;5063419;28;20199;-80
2021/04/11 07:56:31;;;;;;;8.13;7.13;;;;;;;;;;5057481;28;20249;-80
2021/04/11 07:59:02;;;;;;;13.00;8.68;;;;;;;;;;5055172;28;20646;-80
2021/04/11 08:01:47;;;;;;;9.20;7.97;;;;;;;;;;5065445;28;20231;-80
2021/04/11 08:04:12;;;;;;;11.63;7.57;;;;;;;;;;5064009;28;20625;-80
2021/04/11 08:07:04;;;;;;;10.05;7.63;;;;;;;;;;5063829;28;20261;-80
2021/04/11 08:09:32;;;;;;;9.70;7.70;;;;;;;;;;5057770;28;20196;-80
2021/04/11 08:12:09;;;;;;;9.63;7.28;;;;;;;;;;5055456;28;20360;-79
2021/04/11 08:14:41;;;;;;;9.93;7.25;;;;;;;;;;5055427;28;20232;-80
2021/04/11 08:17:25;;;;;;;8.68;7.65;;;;;;;;;;5054241;28;20176;-80
2021/04/11 08:19:56;;;;;;;9.40;7.53;;;;;;;;;;5054811;28;20176;-79
2021/04/11 08:22:27;;;;;;;8.27;7.47;;;;;;;;;;5054829;28;20640;-79
2021/04/11 08:25:11;;;;;;;9.35;7.93;;;;;;;;;;5054921;28;20203;-80
2021/04/11 08:27:59;;;;;;;8.73;7.38;;;;;;;;;;5055739;28;21359;-80
2021/04/11 08:30:43;;;;;;;9.98;7.53;;;;;;;;;;5071838;28;20190;-80
2021/04/11 08:33:27;;;;;;;8.57;6.90;;;;;;;;;;5075063;28;20175;-80
2021/04/11 08:36:01;;;;;;;8.88;7.13;;;;;;;;;;5074665;28;20174;-80
2021/04/11 08:38:44;;;;;;;10.52;7.55;;;;;;;;;;5075164;28;20220;-80
2021/04/11 08:41:36;;;;;;;8.80;7.90;;;;;;;;;;5074532;28;20203;-80
2021/04/11 08:44:10;;;;;;;10.05;7.22;;;;;;;;;;5074848;28;20195;-80
2021/04/11 08:46:35;;;;;;;9.87;7.20;;;;;;;;;;5074684;28;20166;-80
2021/04/11 08:49:21;;;;;;;10.47;7.00;;;;;;;;;;5074654;28;20533;-80
2021/04/11 08:52:05;;;;;;;9.30;7.43;;;;;;;;;;5073466;28;20194;-80
2021/04/11 08:54:47;;;;;;;8.97;7.37;;;;;;;;;;5074922;28;20170;-80
2021/04/11 08:57:24;;;;;;;10.27;7.13;;;;;;;;;;5074338;28;20171;-79
2021/04/11 08:59:53;;;;;;;10.30;7.70;;;;;;;;;;5073488;28;20174;-80
2021/04/11 09:02:21;;;;;;;9.40;7.80;;;;;;;;;;5061717;28;20226;-80
2021/04/11 09:05:05;;;;;;;7.27;6.57;;;;;;;;;;5063332;28;20265;-80
2021/04/11 09:07:30;;;;;;;8.63;6.43;;;;;;;;;;5072332;28;20171;-80
2021/04/11 09:09:55;;;;;;;10.77;7.63;;;;;;;;;;5073255;28;20318;-79
2021/04/11 09:12:39;;;;;;;8.03;6.10;;;;;;;;;;5074265;28;20179;-80
2021/04/11 09:15:10;;;;;;;10.53;5.93;;;;;;;;;;5062215;28;20670;-80
2021/04/11 09:17:45;;;;;;;8.23;6.20;;;;;;;;;;5057475;28;20172;-80
2021/04/11 09:20:17;;;;;;;7.90;5.87;;;;;;;;;;5073977;28;20169;-80
2021/04/11 09:22:58;;;;;;;8.47;6.10;;;;;;;;;;5063674;28;20167;-80
2021/04/11 09:25:28;;;;;;;8.57;5.80;;;;;;;;;;5053742;28;20172;-80
2021/04/11 09:28:12;;;;;;;7.93;5.37;;;;;;;;;;5073358;28;20178;-79
2021/04/11 09:30:57;;;;;;;9.13;5.37;;;;;;;;;;5069146;28;20179;-79
2021/04/11 09:33:34;;;;;;;9.90;6.17;;;;;;;;;;5052785;28;20652;-80
2021/04/11 09:36:05;;;;;;;9.87;5.60;;;;;;;;;;5052462;28;20167;-80
2021/04/11 09:38:37;;;;;;;5.87;5.27;;;;;;;;;;5052743;28;20176;-80
2021/04/11 09:41:20;;;;;;;6.90;4.90;;;;;;;;;;5050873;28;20612;-80
2021/04/11 09:43:48;;;;;;;9.40;5.40;;;;;;;;;;5052178;28;20175;-80
2021/04/11 09:46:20;;;;;;;8.73;5.27;;;;;;;;;;5052298;28;20172;-80
2021/04/11 09:48:48;;;;;;;7.90;4.93;;;;;;;;;;5066124;28;20179;-79
2021/04/11 09:51:27;;;;;;;11.30;7.27;;;;;;;;;;5071921;28;20171;-79
2021/04/11 09:54:01;;;;;;;9.30;6.17;;;;;;;;;;5072463;28;20159;-81
2021/04/11 09:56:27;;;;;;;9.50;5.67;;;;;;;;;;5071979;28;20196;-80
2021/04/11 09:59:13;;;;;;;6.20;4.80;;;;;;;;;;5072257;28;20217;-81
2021/04/11 10:01:44;;;;;;;7.93;5.20;;;;;;;;;;5072156;28;20297;-81
2021/04/11 10:04:28;;;;;;;7.90;6.33;;;;;;;;;;5073630;28;20163;-81
2021/04/11 10:06:54;;;;;;;6.77;5.60;;;;;;;;;;5072927;28;20531;-81
2021/04/11 10:09:31;;;;;;;10.87;5.57;;;;;;;;;;5073286;28;20214;-81
2021/04/11 10:12:11;;;;;;;5.77;4.50;;;;;;;;;;5066875;28;20191;-81
2021/04/11 10:14:36;;;;;;;9.03;5.87;;;;;;;;;;5053443;28;20231;-80
2021/04/11 10:17:02;;;;;;;5.93;5.10;;;;;;;;;;5061348;28;20175;-80
2021/04/11 10:19:36;;;;;;;7.10;5.23;;;;;;;;;;5073820;28;20221;-80
2021/04/11 10:22:14;;;;;;;8.20;5.10;;;;;;;;;;5052598;28;20215;-80
2021/04/11 10:24:59;;;;;;;6.53;4.77;;;;;;;;;;5053534;28;20258;-80
2021/04/11 10:27:28;;;;;;;7.33;5.40;;;;;;;;;;5056247;28;20187;-80
2021/04/11 10:29:54;;;;;;;13.23;6.17;;;;;;;;;;5057929;28;20314;-80
2021/04/11 10:32:38;;;;;;;13.07;6.80;;;;;;;;;;5057444;28;20668;-81
2021/04/11 10:35:10;;;;;;;6.83;5.43;;;;;;;;;;5057574;28;20187;-80
2021/04/11 10:37:44;;;;;;;6.47;4.80;;;;;;;;;;5057211;28;20164;-81
2021/04/11 10:40:28;;;;;;;5.97;5.13;;;;;;;;;;5055128;28;20214;-80
2021/04/11 10:42:59;;;;;;;10.03;5.07;;;;;;;;;;5055550;28;20260;-80
2021/04/11 10:45:38;;;;;;;6.93;4.90;;;;;;;;;;5058714;28;20164;-80
2021/04/11 10:48:15;;;;;;;5.87;4.77;;;;;;;;;;5075744;28;20181;-80
2021/04/11 10:50:50;;;;;;;8.60;5.20;;;;;;;;;;5077008;28;20179;-80
2021/04/11 10:53:22;;;;;;;11.67;5.10;;;;;;;;;;5076655;28;20162;-79
2021/04/11 10:55:56;;;;;;;5.87;5.20;;;;;;;;;;5076274;28;20621;-79
2021/04/11 10:58:22;;;;;;;8.83;5.20;;;;;;;;;;5059354;28;20175;-79
2021/04/11 11:00:47;;;;;;;8.53;4.70;;;;;;;;;;5054936;28;20253;-79
2021/04/11 11:03:23;;;;;;;5.77;4.60;;;;;;;;;;5056361;28;20176;-79
2021/04/11 11:05:51;;;;;;;6.93;4.97;;;;;;;;;;5056709;28;20171;-79
2021/04/11 11:08:23;;;;;;;6.77;4.50;;;;;;;;;;5056624;28;20191;-79
2021/04/11 11:11:06;;;;;;;5.43;4.57;;;;;;;;;;5056081;28;20172;-79
2021/04/11 11:13:38;;;;;;;5.83;4.73;;;;;;;;;;5055790;28;20223;-79
2021/04/11 11:16:06;;;;;;;6.87;5.10;;;;;;;;;;5055558;28;20252;-79
2021/04/11 11:18:43;;;;;;;8.00;4.80;;;;;;;;;;5056212;28;20682;-79
2021/04/11 11:21:27;;;;;;;5.70;4.23;;;;;;;;;;5056201;28;20199;-79
2021/04/11 11:23:52;;;;;;;5.93;4.67;;;;;;;;;;5056392;28;20213;-79
2021/04/11 11:26:33;;;;;;;4.70;4.30;;;;;;;;;;5054847;28;20184;-79
2021/04/11 11:29:10;;;;;;;5.03;4.20;;;;;;;;;;5056023;28;20611;-80
2021/04/11 11:31:44;;;;;;;7.50;4.73;;;;;;;;;;5055884;28;20195;-79
2021/04/11 11:34:09;;;;;;;6.70;4.90;;;;;;;;;;5072828;28;20168;-80
2021/04/11 11:37:10;;;;;;;5.80;4.17;;;;;;;;;;5075875;28;20271;-81
2021/04/11 11:39:35;;;;;;;6.23;5.27;;;;;;;;;;5092920;28;20171;-81
2021/04/11 11:42:00;;;;;;;6.53;5.00;;;;;;;;;;5079117;28;20234;-81
2021/04/11 11:44:29;;;;;;;7.37;4.93;;;;;;;;;;5076001;28;20171;-81
2021/04/11 11:46:54;;;;;;;4.77;4.27;;;;;;;;;;5067696;28;20172;-81
2021/04/11 11:49:23;;;;;;;5.23;4.70;;;;;;;;;;5055718;28;20172;-81
2021/04/11 11:51:51;;;;;;;6.50;5.60;;;;;;;;;;5055525;28;20681;-81
2021/04/11 11:54:19;;;;;;;5.00;4.50;;;;;;;;;;5055248;28;20255;-81
2021/04/11 11:56:45;;;;;;;5.67;4.57;;;;;;;;;;5052657;28;20184;-81
2021/04/11 11:59:18;;;;;;;5.83;3.93;;;;;;;;;;5053774;28;20233;-81
2021/04/11 12:01:53;;;;;;;5.27;4.47;;;;;;;;;;5052492;28;20299;-82
2021/04/11 12:04:25;;;;;;;7.47;5.33;;;;;;;;;;5053752;28;20191;-81
2021/04/11 12:06:52;;;;;;;6.97;4.43;;;;;;;;;;5053978;28;20167;-81
2021/04/11 12:09:21;;;;;;;6.53;4.47;;;;;;;;;;5053629;28;20196;-81
2021/04/11 12:11:50;;;;;;;7.47;4.67;;;;;;;;;;5052395;28;20176;-81
2021/04/11 12:14:20;;;;;;;5.57;4.43;;;;;;;;;;5053735;28;20594;-82
2021/04/11 12:17:01;;;;;;;7.93;5.80;;;;;;;;;;5053539;28;20179;-82
2021/04/11 12:19:39;;;;;;;9.52;6.40;;;;;;;;;;5053095;28;20164;-82
2021/04/11 12:22:25;;;;;;;8.93;5.43;;;;;;;;;;5053255;28;20203;-82
2021/04/11 12:24:54;;;;;;;6.03;4.80;;;;;;;;;;5052784;28;20600;-82
2021/04/11 12:27:33;;;;;;;4.97;4.43;;;;;;;;;;5053107;28;20171;-81
2021/04/11 12:30:00;;;;;;;7.43;5.27;;;;;;;;;;5053153;28;20163;-81
2021/04/11 12:32:29;;;;;;;9.47;6.33;;;;;;;;;;5053415;28;20184;-81
2021/04/11 12:35:00;;;;;;;10.27;6.57;;;;;;;;;;5053251;28;20176;-81
2021/04/11 12:37:28;;;;;;;8.57;7.20;;;;;;;;;;5053376;28;20518;-81
2021/04/11 12:40:02;;;;;;;7.10;5.17;;;;;;;;;;5053371;28;20172;-81
2021/04/11 12:42:28;;;;;;;6.37;5.47;;;;;;;;;;5053138;28;20202;-81
2021/04/11 12:44:59;;;;;;;6.17;4.83;;;;;;;;;;5053176;28;20619;-81
2021/04/11 12:47:29;;;;;;;9.23;5.17;;;;;;;;;;5051592;28;20180;-81
2021/04/11 12:50:01;;;;;;;8.73;5.87;;;;;;;;;;5053079;28;20168;-81
2021/04/11 12:52:30;;;;;;;6.23;5.10;;;;;;;;;;5052504;28;20267;-81
2021/04/11 12:54:58;;;;;;;5.63;5.00;;;;;;;;;;5052985;28;20176;-81
2021/04/11 12:57:38;;;;;;;7.53;5.50;;;;;;;;;;5052419;28;20512;-81
2021/04/11 13:00:10;;;;;;;8.60;6.13;;;;;;;;;;5052860;28;20214;-81
2021/04/11 13:02:43;;;;;;;10.00;5.90;;;;;;;;;;5052655;28;20662;-82
2021/04/11 13:05:12;;;;;;;10.37;5.40;;;;;;;;;;5052815;28;20172;-81
2021/04/11 13:07:41;;;;;;;7.87;4.97;;;;;;;;;;5052494;28;20175;-81
2021/04/11 13:10:25;;;;;;;7.00;4.63;;;;;;;;;;5052589;28;20207;-81
2021/04/11 13:13:10;;;;;;;7.60;4.77;;;;;;;;;;5052541;28;20267;-81
2021/04/11 13:15:39;;;;;;;7.00;5.10;;;;;;;;;;5052736;28;20195;-81
2021/04/11 13:18:30;;;;;;;6.30;5.20;;;;;;;;;;5068213;28;20252;-81
2021/04/11 13:21:07;;;;;;;9.18;5.93;;;;;;;;;;5072399;28;20274;-81
2021/04/11 13:23:35;;;;;;;7.83;5.20;;;;;;;;;;5053137;28;20172;-81
2021/04/11 13:26:12;;;;;;;6.00;5.40;;;;;;;;;;5051124;28;20172;-82
2021/04/11 13:28:40;;;;;;;6.37;4.73;;;;;;;;;;5052324;28;20178;-81
2021/04/11 13:31:12;;;;;;;8.53;4.83;;;;;;;;;;5052549;28;20167;-81
2021/04/11 13:33:58;;;;;;;8.57;5.43;;;;;;;;;;5052262;28;20194;-81
2021/04/11 13:36:26;;;;;;;9.70;6.87;;;;;;;;;;5056647;28;20176;-81
2021/04/11 13:38:56;;;;;;;8.73;6.17;;;;;;;;;;5052405;28;20178;-80
2021/04/11 13:41:27;;;;;;;7.57;5.10;;;;;;;;;;5052178;28;20987;-80
2021/04/11 13:44:05;;;;;;;8.07;4.33;;;;;;;;;;5050760;28;20207;-82
2021/04/11 13:46:38;;;;;;;9.90;5.57;;;;;;;;;;5051946;28;20171;-82
2021/04/11 13:49:27;;;;;;;9.10;6.83;;;;;;;;;;5052070;28;20168;-81
2021/04/11 13:51:52;;;;;;;7.57;5.47;;;;;;;;;;5051990;28;20163;-81
2021/04/11 13:54:22;;;;;;;6.83;5.10;;;;;;;;;;5051717;28;20592;-81
2021/04/11 13:56:59;;;;;;;7.90;4.97;;;;;;;;;;5051662;28;20645;-81
2021/04/11 13:59:43;;;;;;;5.53;4.90;;;;;;;;;;5051768;28;20254;-81
2021/04/11 14:02:27;;;;;;;6.07;5.40;;;;;;;;;;5052058;28;20200;-81
2021/04/11 14:04:52;;;;;;;6.63;5.03;;;;;;;;;;5055608;28;20674;-81
2021/04/11 14:07:20;;;;;;;5.80;4.93;;;;;;;;;;5054138;28;20198;-81
2021/04/11 14:09:54;;;;;;;5.33;4.53;;;;;;;;;;5055935;28;20191;-81
2021/04/11 14:12:22;;;;;;;7.10;5.20;;;;;;;;;;5056685;28;20152;-79
2021/04/11 14:14:47;;;;;;;7.33;4.70;;;;;;;;;;5057796;28;20224;-80
2021/04/11 14:17:16;;;;;;;8.03;4.60;;;;;;;;;;5057388;28;20183;-80
2021/04/11 14:19:52;;;;;;;5.67;4.80;;;;;;;;;;5057917;28;20583;-80
2021/04/11 14:22:31;;;;;;;6.33;4.93;;;;;;;;;;5057124;28;20245;-80
2021/04/11 14:25:19;;;;;;;6.40;4.73;;;;;;;;;;5057732;28;20256;-79
2021/04/11 14:27:57;;;;;;;5.50;4.90;;;;;;;;;;5059210;28;20538;-80
2021/04/11 14:30:35;;;;;;;5.63;5.00;;;;;;;;;;5057533;28;20178;-80
2021/04/11 14:33:01;;;;;;;5.20;4.53;;;;;;;;;;5057247;28;20183;-79
2021/04/11 14:35:30;;;;;;;11.27;5.00;;;;;;;;;;5057399;28;20176;-80
2021/04/11 14:38:00;;;;;;;6.00;4.60;;;;;;;;;;5056774;28;20198;-80
2021/04/11 14:40:46;;;;;;;5.20;4.70;;;;;;;;;;5055903;28;20178;-80
2021/04/11 14:43:27;;;;;;;6.30;5.67;;;;;;;;;;5057490;28;20707;-80
2021/04/11 14:45:56;;;;;;;6.37;4.93;;;;;;;;;;5055463;28;20168;-80
2021/04/11 14:48:24;;;;;;;5.53;4.70;;;;;;;;;;5055268;28;20546;-80
2021/04/11 14:50:49;;;;;;;8.80;5.10;;;;;;;;;;5055107;28;20176;-80
2021/04/11 14:53:27;;;;;;;8.87;5.67;;;;;;;;;;5054883;28;20187;-80
2021/04/11 14:55:52;;;;;;;8.40;5.00;;;;;;;;;;5055182;28;20168;-80
2021/04/11 14:58:37;;;;;;;5.10;4.60;;;;;;;;;;5056392;28;20175;-80
2021/04/11 15:01:16;;;;;;;6.40;5.00;;;;;;;;;;5056608;28;20196;-79